Aeroporto :
LOGIN :

Iscrizione | Disclaimer

   EN    FR    IT 

 










Sommario :    VFR   VFR Marginale   IFR   IFR Intensivo   IFR Molto Intensivo
Visibilità : 
Base nubi : 
>= 8 km
>= 3000ft
5 / 8 km
1000 / 3000 ft
1500m / 5 km
500 / 1000 ft
800 / 1500m
200 / 500 ft
< 800m
< 200 ft
Simboli :   Temporali  Nebbia  Neve Forte  Precipitazioni Forti  Vento > 20 kt
SIGMETs :   Varie  Temporali  Ghiacco  Turbolenza  Onda orograficha  Ceneri Vulcaniche






- Altitudine del aeroporto : 353 ft
- Codice IATA : ZAG


LDZA - Zagreb Pleso

ULTIMO METAR :
  • 281030Z 36007KT 310V070 CAVOK 22/05 Q1022 NOSIG

METARs OBSOLETI :
  • 281000Z 35006KT 300V050 CAVOK 21/05 Q1023 NOSIG
  • 280930Z 36008KT 320V060 CAVOK 21/05 Q1023 NOSIG
  • 280900Z 35007KT 300V050 CAVOK 20/06 Q1023 NOSIG
  • 280830Z 27004KT 210V340 CAVOK 20/09 Q1024 NOSIG
  • 280800Z VRB05KT CAVOK 20/06 Q1024 NOSIG

TAF TAF LDZA
Valido dal 28 a 06 ore il 29 a 06 ore UTC


280525Z 2806/2906 24006KT CAVOK TX22/2813Z TN08/2904Z
BECMG 2814/2816 02008KT
PROB40
TEMPO 2814/2819 35020KT SHRA FEW050TCU
PROB30
TEMPO 2815/2819 TSRA FEW040CB
ATIS : +385 1 6-259-214



MetMap, La meteo Aeronautica in un colpo d'occhio ! - Copyright ORBIFLY Dicembre 2007 - Disclaimer

ORBIFLY MET'MAP TEAM :

Programmazione e sviluppo : Alexandra Zaïnal
Concezione : Baudouin d'Aumeries
Aiuto per la programmazione : Marc-Olivier Méhu
Supporto tecnico e logistico : Manuel Goepfert
Aiuto per la traduzione : Arnaldo La Scala

Contatto : metmap@orbifly.com




FONTI E CREDITI :

   NOAA